sensor_id;sensor_type;location;lat;lon;timestamp;temperature;humidity
6178;DHT22;3122;48.208;11.174;2023-04-24T00:03:41;10.20;1.00
6178;DHT22;3122;48.208;11.174;2023-04-24T00:08:42;10.10;1.00
6178;DHT22;3122;48.208;11.174;2023-04-24T00:13:42;10.20;1.00
6178;DHT22;3122;48.208;11.174;2023-04-24T00:18:43;10.20;1.00
6178;DHT22;3122;48.208;11.174;2023-04-24T00:23:45;10.10;1.00
6178;DHT22;3122;48.208;11.174;2023-04-24T00:28:45;10.00;1.00
6178;DHT22;3122;48.208;11.174;2023-04-24T00:33:46;10.00;1.00
6178;DHT22;3122;48.208;11.174;2023-04-24T00:38:47;9.90;1.00
6178;DHT22;3122;48.208;11.174;2023-04-24T00:43:47;9.90;1.00
6178;DHT22;3122;48.208;11.174;2023-04-24T00:48:48;9.80;1.00
6178;DHT22;3122;48.208;11.174;2023-04-24T00:53:49;9.70;1.00
6178;DHT22;3122;48.208;11.174;2023-04-24T00:58:50;9.70;1.00
6178;DHT22;3122;48.208;11.174;2023-04-24T01:03:51;9.60;1.00
6178;DHT22;3122;48.208;11.174;2023-04-24T01:08:53;9.60;1.00
6178;DHT22;3122;48.208;11.174;2023-04-24T01:13:54;9.60;1.00
6178;DHT22;3122;48.208;11.174;2023-04-24T01:18:54;9.50;1.00
6178;DHT22;3122;48.208;11.174;2023-04-24T01:23:55;9.50;1.00
6178;DHT22;3122;48.208;11.174;2023-04-24T01:28:57;9.50;1.00
6178;DHT22;3122;48.208;11.174;2023-04-24T01:33:57;9.40;1.00
6178;DHT22;3122;48.208;11.174;2023-04-24T01:38:58;9.40;1.00
6178;DHT22;3122;48.208;11.174;2023-04-24T01:43:59;9.40;1.00
6178;DHT22;3122;48.208;11.174;2023-04-24T01:49:00;9.40;1.00
6178;DHT22;3122;48.208;11.174;2023-04-24T01:54:01;9.40;1.00
6178;DHT22;3122;48.208;11.174;2023-04-24T01:59:03;9.40;1.00
6178;DHT22;3122;48.208;11.174;2023-04-24T02:04:05;9.30;1.00
6178;DHT22;3122;48.208;11.174;2023-04-24T02:09:06;9.30;1.00
6178;DHT22;3122;48.208;11.174;2023-04-24T02:14:07;9.30;1.00
6178;DHT22;3122;48.208;11.174;2023-04-24T02:19:08;9.30;1.00
6178;DHT22;3122;48.208;11.174;2023-04-24T02:24:08;9.30;1.00
6178;DHT22;3122;48.208;11.174;2023-04-24T02:29:09;9.40;1.00
6178;DHT22;3122;48.208;11.174;2023-04-24T02:34:09;9.40;1.00
6178;DHT22;3122;48.208;11.174;2023-04-24T02:39:10;9.40;1.00
6178;DHT22;3122;48.208;11.174;2023-04-24T02:44:11;9.30;1.00
6178;DHT22;3122;48.208;11.174;2023-04-24T02:49:11;9.30;1.00
6178;DHT22;3122;48.208;11.174;2023-04-24T02:54:12;9.40;1.00
6178;DHT22;3122;48.208;11.174;2023-04-24T02:59:13;9.30;1.00
6178;DHT22;3122;48.208;11.174;2023-04-24T03:04:13;9.30;1.00
6178;DHT22;3122;48.208;11.174;2023-04-24T03:09:14;9.20;1.00
6178;DHT22;3122;48.208;11.174;2023-04-24T03:14:14;9.20;1.00
6178;DHT22;3122;48.208;11.174;2023-04-24T03:19:15;9.20;1.00
6178;DHT22;3122;48.208;11.174;2023-04-24T03:24:16;9.20;1.00
6178;DHT22;3122;48.208;11.174;2023-04-24T03:29:16;9.10;1.00
6178;DHT22;3122;48.208;11.174;2023-04-24T03:34:17;9.10;1.00
6178;DHT22;3122;48.208;11.174;2023-04-24T03:39:17;9.10;1.00
6178;DHT22;3122;48.208;11.174;2023-04-24T03:44:18;9.10;1.00
6178;DHT22;3122;48.208;11.174;2023-04-24T03:49:18;9.10;1.00
6178;DHT22;3122;48.208;11.174;2023-04-24T03:54:19;9.10;1.00
6178;DHT22;3122;48.208;11.174;2023-04-24T03:59:20;9.00;1.00
6178;DHT22;3122;48.208;11.174;2023-04-24T04:04:20;9.10;1.00
6178;DHT22;3122;48.208;11.174;2023-04-24T04:09:21;9.00;1.00
6178;DHT22;3122;48.208;11.174;2023-04-24T04:14:22;9.00;1.00
6178;DHT22;3122;48.208;11.174;2023-04-24T04:19:23;9.00;1.00
6178;DHT22;3122;48.208;11.174;2023-04-24T04:24:24;9.00;1.00
6178;DHT22;3122;48.208;11.174;2023-04-24T04:29:24;9.10;1.00
6178;DHT22;3122;48.208;11.174;2023-04-24T04:34:26;9.10;1.00
6178;DHT22;3122;48.208;11.174;2023-04-24T04:39:26;9.00;1.00
6178;DHT22;3122;48.208;11.174;2023-04-24T04:44:28;9.00;1.00
6178;DHT22;3122;48.208;11.174;2023-04-24T04:49:32;9.00;1.00
6178;DHT22;3122;48.208;11.174;2023-04-24T04:54:32;9.00;1.00
6178;DHT22;3122;48.208;11.174;2023-04-24T04:59:33;9.10;1.00
6178;DHT22;3122;48.208;11.174;2023-04-24T05:04:33;9.00;1.00
6178;DHT22;3122;48.208;11.174;2023-04-24T05:09:34;9.00;1.00
6178;DHT22;3122;48.208;11.174;2023-04-24T05:14:34;9.00;1.00
6178;DHT22;3122;48.208;11.174;2023-04-24T05:19:35;9.10;1.00
6178;DHT22;3122;48.208;11.174;2023-04-24T05:24:38;9.10;1.00
6178;DHT22;3122;48.208;11.174;2023-04-24T05:29:38;9.20;1.00
6178;DHT22;3122;48.208;11.174;2023-04-24T05:34:39;9.20;1.00
6178;DHT22;3122;48.208;11.174;2023-04-24T05:39:40;9.20;1.00
6178;DHT22;3122;48.208;11.174;2023-04-24T05:44:41;9.30;1.00
6178;DHT22;3122;48.208;11.174;2023-04-24T05:49:42;9.30;1.00
6178;DHT22;3122;48.208;11.174;2023-04-24T05:54:43;9.30;1.00
6178;DHT22;3122;48.208;11.174;2023-04-24T05:59:45;9.40;1.00
6178;DHT22;3122;48.208;11.174;2023-04-24T06:04:45;9.30;1.00
6178;DHT22;3122;48.208;11.174;2023-04-24T06:09:46;9.40;1.00
6178;DHT22;3122;48.208;11.174;2023-04-24T06:14:47;9.40;1.00
6178;DHT22;3122;48.208;11.174;2023-04-24T06:19:48;9.40;1.00
6178;DHT22;3122;48.208;11.174;2023-04-24T06:24:48;9.40;1.00
6178;DHT22;3122;48.208;11.174;2023-04-24T06:29:49;9.40;1.00
6178;DHT22;3122;48.208;11.174;2023-04-24T06:34:54;9.50;1.00
6178;DHT22;3122;48.208;11.174;2023-04-24T06:39:55;9.50;1.00
6178;DHT22;3122;48.208;11.174;2023-04-24T06:44:55;9.50;1.00
6178;DHT22;3122;48.208;11.174;2023-04-24T06:49:56;9.60;1.00
6178;DHT22;3122;48.208;11.174;2023-04-24T06:55:03;9.60;1.00
6178;DHT22;3122;48.208;11.174;2023-04-24T07:00:05;9.70;1.00
6178;DHT22;3122;48.208;11.174;2023-04-24T07:05:07;9.80;1.00
6178;DHT22;3122;48.208;11.174;2023-04-24T07:10:08;9.80;1.00
6178;DHT22;3122;48.208;11.174;2023-04-24T07:15:09;9.90;1.00
6178;DHT22;3122;48.208;11.174;2023-04-24T07:20:11;9.80;1.00
6178;DHT22;3122;48.208;11.174;2023-04-24T07:25:11;9.90;1.00
6178;DHT22;3122;48.208;11.174;2023-04-24T07:30:12;10.10;1.00
6178;DHT22;3122;48.208;11.174;2023-04-24T07:35:13;10.20;1.00
6178;DHT22;3122;48.208;11.174;2023-04-24T07:40:13;10.30;1.00
6178;DHT22;3122;48.208;11.174;2023-04-24T07:45:14;10.30;1.00
6178;DHT22;3122;48.208;11.174;2023-04-24T07:50:15;10.20;1.00
6178;DHT22;3122;48.208;11.174;2023-04-24T07:55:16;10.20;1.00
6178;DHT22;3122;48.208;11.174;2023-04-24T08:00:17;10.10;1.00
6178;DHT22;3122;48.208;11.174;2023-04-24T08:05:17;10.00;1.00
6178;DHT22;3122;48.208;11.174;2023-04-24T08:10:18;9.70;1.00
6178;DHT22;3122;48.208;11.174;2023-04-24T08:15:19;9.40;1.00
6178;DHT22;3122;48.208;11.174;2023-04-24T08:20:19;9.40;1.00
6178;DHT22;3122;48.208;11.174;2023-04-24T08:25:20;9.50;1.00
6178;DHT22;3122;48.208;11.174;2023-04-24T08:30:21;9.50;1.00
6178;DHT22;3122;48.208;11.174;2023-04-24T08:35:21;9.70;1.00
6178;DHT22;3122;48.208;11.174;2023-04-24T08:40:28;9.60;1.00
6178;DHT22;3122;48.208;11.174;2023-04-24T08:45:32;9.70;1.00
6178;DHT22;3122;48.208;11.174;2023-04-24T08:50:34;9.50;1.00
6178;DHT22;3122;48.208;11.174;2023-04-24T08:55:35;9.60;1.00
6178;DHT22;3122;48.208;11.174;2023-04-24T09:00:36;9.90;1.00
6178;DHT22;3122;48.208;11.174;2023-04-24T09:05:39;10.10;1.00
6178;DHT22;3122;48.208;11.174;2023-04-24T09:10:41;10.10;1.00
6178;DHT22;3122;48.208;11.174;2023-04-24T09:15:42;10.30;1.00
6178;DHT22;3122;48.208;11.174;2023-04-24T09:21:07;10.40;1.00
6178;DHT22;3122;48.208;11.174;2023-04-24T09:26:09;10.30;1.00
6178;DHT22;3122;48.208;11.174;2023-04-24T09:31:14;10.40;1.00
6178;DHT22;3122;48.208;11.174;2023-04-24T09:36:18;10.40;1.00
6178;DHT22;3122;48.208;11.174;2023-04-24T09:41:18;10.40;1.00
6178;DHT22;3122;48.208;11.174;2023-04-24T09:46:19;10.60;1.00
6178;DHT22;3122;48.208;11.174;2023-04-24T09:51:34;10.60;1.00
6178;DHT22;3122;48.208;11.174;2023-04-24T09:56:35;10.80;1.00
6178;DHT22;3122;48.208;11.174;2023-04-24T10:01:36;11.10;1.00
6178;DHT22;3122;48.208;11.174;2023-04-24T10:06:38;11.20;1.00
6178;DHT22;3122;48.208;11.174;2023-04-24T10:11:44;11.30;1.00
6178;DHT22;3122;48.208;11.174;2023-04-24T10:16:48;11.30;1.00
6178;DHT22;3122;48.208;11.174;2023-04-24T10:21:49;11.00;1.00
6178;DHT22;3122;48.208;11.174;2023-04-24T10:26:50;10.00;1.00
6178;DHT22;3122;48.208;11.174;2023-04-24T10:31:51;9.00;1.00
6178;DHT22;3122;48.208;11.174;2023-04-24T10:36:52;8.80;1.00
6178;DHT22;3122;48.208;11.174;2023-04-24T10:41:55;8.90;1.00
6178;DHT22;3122;48.208;11.174;2023-04-24T10:46:58;9.20;1.00
6178;DHT22;3122;48.208;11.174;2023-04-24T10:52:03;9.80;1.00
6178;DHT22;3122;48.208;11.174;2023-04-24T11:02:36;10.30;1.00
6178;DHT22;3122;48.208;11.174;2023-04-24T11:08:11;10.60;1.00
6178;DHT22;3122;48.208;11.174;2023-04-24T11:13:16;10.40;1.00
6178;DHT22;3122;48.208;11.174;2023-04-24T11:18:16;10.40;1.00
6178;DHT22;3122;48.208;11.174;2023-04-24T11:23:18;10.50;1.00
6178;DHT22;3122;48.208;11.174;2023-04-24T11:28:18;10.60;1.00
6178;DHT22;3122;48.208;11.174;2023-04-24T11:33:20;11.00;1.00
6178;DHT22;3122;48.208;11.174;2023-04-24T11:38:21;11.50;1.00
6178;DHT22;3122;48.208;11.174;2023-04-24T11:43:21;11.70;1.00
6178;DHT22;3122;48.208;11.174;2023-04-24T11:48:23;11.90;1.00
6178;DHT22;3122;48.208;11.174;2023-04-24T11:53:23;12.20;1.00
6178;DHT22;3122;48.208;11.174;2023-04-24T11:58:24;12.10;1.00
6178;DHT22;3122;48.208;11.174;2023-04-24T12:03:26;12.30;1.00
6178;DHT22;3122;48.208;11.174;2023-04-24T12:08:28;12.60;1.00
6178;DHT22;3122;48.208;11.174;2023-04-24T12:13:29;12.40;1.00
6178;DHT22;3122;48.208;11.174;2023-04-24T12:18:30;12.60;1.00
6178;DHT22;3122;48.208;11.174;2023-04-24T12:23:34;12.50;1.00
6178;DHT22;3122;48.208;11.174;2023-04-24T12:28:39;12.70;1.00
6178;DHT22;3122;48.208;11.174;2023-04-24T12:33:39;12.90;1.00
6178;DHT22;3122;48.208;11.174;2023-04-24T12:38:43;12.60;1.00
6178;DHT22;3122;48.208;11.174;2023-04-24T12:43:54;11.70;1.00
6178;DHT22;3122;48.208;11.174;2023-04-24T12:48:55;11.50;1.00
6178;DHT22;3122;48.208;11.174;2023-04-24T12:53:56;11.60;1.00
6178;DHT22;3122;48.208;11.174;2023-04-24T12:58:57;12.00;1.00
6178;DHT22;3122;48.208;11.174;2023-04-24T13:03:57;12.50;1.00
6178;DHT22;3122;48.208;11.174;2023-04-24T13:08:58;13.00;1.00
6178;DHT22;3122;48.208;11.174;2023-04-24T13:13:59;12.70;1.00
6178;DHT22;3122;48.208;11.174;2023-04-24T13:18:59;12.60;1.00
6178;DHT22;3122;48.208;11.174;2023-04-24T13:24:00;12.70;1.00
6178;DHT22;3122;48.208;11.174;2023-04-24T13:29:01;12.80;1.00
6178;DHT22;3122;48.208;11.174;2023-04-24T13:34:02;12.90;1.00
6178;DHT22;3122;48.208;11.174;2023-04-24T13:39:05;12.90;1.00
6178;DHT22;3122;48.208;11.174;2023-04-24T13:44:06;12.10;1.00
6178;DHT22;3122;48.208;11.174;2023-04-24T13:49:06;11.90;1.00
6178;DHT22;3122;48.208;11.174;2023-04-24T13:54:07;12.00;1.00
6178;DHT22;3122;48.208;11.174;2023-04-24T13:59:08;12.00;1.00
6178;DHT22;3122;48.208;11.174;2023-04-24T14:04:09;12.40;1.00
6178;DHT22;3122;48.208;11.174;2023-04-24T14:09:09;12.50;1.00
6178;DHT22;3122;48.208;11.174;2023-04-24T14:14:10;12.40;1.00
6178;DHT22;3122;48.208;11.174;2023-04-24T14:19:11;12.30;1.00
6178;DHT22;3122;48.208;11.174;2023-04-24T14:24:12;12.30;1.00
6178;DHT22;3122;48.208;11.174;2023-04-24T14:29:12;12.30;1.00
6178;DHT22;3122;48.208;11.174;2023-04-24T14:34:13;12.50;1.00
6178;DHT22;3122;48.208;11.174;2023-04-24T14:39:14;12.60;1.00
6178;DHT22;3122;48.208;11.174;2023-04-24T14:44:15;13.10;1.00
6178;DHT22;3122;48.208;11.174;2023-04-24T14:49:16;12.60;1.00
6178;DHT22;3122;48.208;11.174;2023-04-24T14:54:16;13.20;1.00
6178;DHT22;3122;48.208;11.174;2023-04-24T14:59:17;13.20;1.00
6178;DHT22;3122;48.208;11.174;2023-04-24T15:04:18;13.10;1.00
6178;DHT22;3122;48.208;11.174;2023-04-24T15:09:19;13.30;1.00
6178;DHT22;3122;48.208;11.174;2023-04-24T15:14:20;13.10;1.00
6178;DHT22;3122;48.208;11.174;2023-04-24T15:19:20;12.60;1.00
6178;DHT22;3122;48.208;11.174;2023-04-24T15:24:21;12.60;1.00
6178;DHT22;3122;48.208;11.174;2023-04-24T15:29:22;12.90;1.00
6178;DHT22;3122;48.208;11.174;2023-04-24T15:34:22;12.40;1.00
6178;DHT22;3122;48.208;11.174;2023-04-24T15:39:23;12.70;1.00
6178;DHT22;3122;48.208;11.174;2023-04-24T15:44:24;12.80;1.00
6178;DHT22;3122;48.208;11.174;2023-04-24T15:49:25;12.70;1.00
6178;DHT22;3122;48.208;11.174;2023-04-24T15:54:26;12.30;1.00
6178;DHT22;3122;48.208;11.174;2023-04-24T15:59:27;11.80;1.00
6178;DHT22;3122;48.208;11.174;2023-04-24T16:04:29;11.80;1.00
6178;DHT22;3122;48.208;11.174;2023-04-24T16:09:30;11.60;1.00
6178;DHT22;3122;48.208;11.174;2023-04-24T16:14:30;11.40;1.00
6178;DHT22;3122;48.208;11.174;2023-04-24T16:19:31;11.60;1.00
6178;DHT22;3122;48.208;11.174;2023-04-24T16:24:35;12.30;1.00
6178;DHT22;3122;48.208;11.174;2023-04-24T16:29:36;12.20;1.00
6178;DHT22;3122;48.208;11.174;2023-04-24T16:34:36;12.20;1.00
6178;DHT22;3122;48.208;11.174;2023-04-24T16:39:37;11.60;1.00
6178;DHT22;3122;48.208;11.174;2023-04-24T16:44:38;12.00;1.00
6178;DHT22;3122;48.208;11.174;2023-04-24T16:49:42;12.20;1.00
6178;DHT22;3122;48.208;11.174;2023-04-24T16:54:42;12.10;1.00
6178;DHT22;3122;48.208;11.174;2023-04-24T16:59:43;12.00;1.00
6178;DHT22;3122;48.208;11.174;2023-04-24T17:04:44;12.30;1.00
6178;DHT22;3122;48.208;11.174;2023-04-24T17:09:44;12.30;1.00
6178;DHT22;3122;48.208;11.174;2023-04-24T17:14:45;12.40;1.00
6178;DHT22;3122;48.208;11.174;2023-04-24T17:19:46;12.30;1.00
6178;DHT22;3122;48.208;11.174;2023-04-24T17:24:47;12.10;1.00
6178;DHT22;3122;48.208;11.174;2023-04-24T17:29:47;12.40;1.00
6178;DHT22;3122;48.208;11.174;2023-04-24T17:34:49;12.20;1.00
6178;DHT22;3122;48.208;11.174;2023-04-24T17:39:49;11.50;1.00
6178;DHT22;3122;48.208;11.174;2023-04-24T17:44:50;11.10;1.00
6178;DHT22;3122;48.208;11.174;2023-04-24T17:49:50;11.00;1.00
6178;DHT22;3122;48.208;11.174;2023-04-24T17:54:52;11.00;1.00
6178;DHT22;3122;48.208;11.174;2023-04-24T17:59:52;10.90;1.00
6178;DHT22;3122;48.208;11.174;2023-04-24T18:04:53;10.60;1.00
6178;DHT22;3122;48.208;11.174;2023-04-24T18:09:53;10.40;1.00
6178;DHT22;3122;48.208;11.174;2023-04-24T18:14:54;10.30;1.00
6178;DHT22;3122;48.208;11.174;2023-04-24T18:19:55;10.30;1.00
6178;DHT22;3122;48.208;11.174;2023-04-24T18:24:55;10.20;1.00
6178;DHT22;3122;48.208;11.174;2023-04-24T18:29:57;10.00;1.00
6178;DHT22;3122;48.208;11.174;2023-04-24T18:34:58;9.80;1.00
6178;DHT22;3122;48.208;11.174;2023-04-24T18:39:59;9.80;1.00
6178;DHT22;3122;48.208;11.174;2023-04-24T18:45:00;9.80;1.00
6178;DHT22;3122;48.208;11.174;2023-04-24T18:50:02;9.80;1.00
6178;DHT22;3122;48.208;11.174;2023-04-24T18:55:03;9.70;1.00
6178;DHT22;3122;48.208;11.174;2023-04-24T19:00:05;9.40;1.00
6178;DHT22;3122;48.208;11.174;2023-04-24T19:05:06;9.10;1.00
6178;DHT22;3122;48.208;11.174;2023-04-24T19:10:08;9.00;1.00
6178;DHT22;3122;48.208;11.174;2023-04-24T19:15:09;8.90;1.00
6178;DHT22;3122;48.208;11.174;2023-04-24T19:20:12;8.90;1.00
6178;DHT22;3122;48.208;11.174;2023-04-24T19:25:13;8.80;1.00
6178;DHT22;3122;48.208;11.174;2023-04-24T19:30:14;8.80;1.00
6178;DHT22;3122;48.208;11.174;2023-04-24T19:35:14;8.80;1.00
6178;DHT22;3122;48.208;11.174;2023-04-24T19:40:15;8.80;1.00
6178;DHT22;3122;48.208;11.174;2023-04-24T19:45:16;8.70;1.00
6178;DHT22;3122;48.208;11.174;2023-04-24T19:50:16;8.70;1.00
6178;DHT22;3122;48.208;11.174;2023-04-24T19:55:17;8.40;1.00
6178;DHT22;3122;48.208;11.174;2023-04-24T20:00:17;8.40;1.00
6178;DHT22;3122;48.208;11.174;2023-04-24T20:05:18;8.30;1.00
6178;DHT22;3122;48.208;11.174;2023-04-24T20:10:19;8.40;1.00
6178;DHT22;3122;48.208;11.174;2023-04-24T20:15:19;8.30;1.00
6178;DHT22;3122;48.208;11.174;2023-04-24T20:20:20;8.30;1.00
6178;DHT22;3122;48.208;11.174;2023-04-24T20:25:20;8.40;1.00
6178;DHT22;3122;48.208;11.174;2023-04-24T20:30:21;8.40;1.00
6178;DHT22;3122;48.208;11.174;2023-04-24T20:35:22;8.30;1.00
6178;DHT22;3122;48.208;11.174;2023-04-24T20:40:22;8.30;1.00
6178;DHT22;3122;48.208;11.174;2023-04-24T20:45:23;8.10;1.00
6178;DHT22;3122;48.208;11.174;2023-04-24T20:50:25;8.10;1.00
6178;DHT22;3122;48.208;11.174;2023-04-24T20:55:25;8.00;1.00
6178;DHT22;3122;48.208;11.174;2023-04-24T21:00:27;7.90;1.00
6178;DHT22;3122;48.208;11.174;2023-04-24T21:05:28;7.80;1.00
6178;DHT22;3122;48.208;11.174;2023-04-24T21:10:28;7.90;1.00
6178;DHT22;3122;48.208;11.174;2023-04-24T21:15:29;7.70;1.00
6178;DHT22;3122;48.208;11.174;2023-04-24T21:20:30;7.60;1.00
6178;DHT22;3122;48.208;11.174;2023-04-24T21:25:31;7.50;1.00
6178;DHT22;3122;48.208;11.174;2023-04-24T21:30:32;7.50;1.00
6178;DHT22;3122;48.208;11.174;2023-04-24T21:35:32;7.60;1.00
6178;DHT22;3122;48.208;11.174;2023-04-24T21:40:33;7.60;1.00
6178;DHT22;3122;48.208;11.174;2023-04-24T21:45:33;7.60;1.00
6178;DHT22;3122;48.208;11.174;2023-04-24T21:50:34;7.50;1.00
6178;DHT22;3122;48.208;11.174;2023-04-24T21:55:34;7.30;1.00
6178;DHT22;3122;48.208;11.174;2023-04-24T22:00:35;7.30;1.00
6178;DHT22;3122;48.208;11.174;2023-04-24T22:05:36;7.40;1.00
6178;DHT22;3122;48.208;11.174;2023-04-24T22:10:36;7.40;1.00
6178;DHT22;3122;48.208;11.174;2023-04-24T22:15:37;7.40;1.00
6178;DHT22;3122;48.208;11.174;2023-04-24T22:20:38;7.40;1.00
6178;DHT22;3122;48.208;11.174;2023-04-24T22:25:39;7.40;1.00
6178;DHT22;3122;48.208;11.174;2023-04-24T22:30:39;7.40;1.00
6178;DHT22;3122;48.208;11.174;2023-04-24T22:35:40;7.40;1.00
6178;DHT22;3122;48.208;11.174;2023-04-24T22:40:41;7.30;1.00
6178;DHT22;3122;48.208;11.174;2023-04-24T22:45:42;7.40;1.00
6178;DHT22;3122;48.208;11.174;2023-04-24T22:50:42;7.40;1.00
6178;DHT22;3122;48.208;11.174;2023-04-24T22:55:43;7.40;1.00
6178;DHT22;3122;48.208;11.174;2023-04-24T23:00:43;7.30;1.00
6178;DHT22;3122;48.208;11.174;2023-04-24T23:05:44;7.30;1.00
6178;DHT22;3122;48.208;11.174;2023-04-24T23:10:45;7.20;1.00
6178;DHT22;3122;48.208;11.174;2023-04-24T23:15:45;7.20;1.00
6178;DHT22;3122;48.208;11.174;2023-04-24T23:20:46;7.10;1.00
6178;DHT22;3122;48.208;11.174;2023-04-24T23:25:46;7.20;1.00
6178;DHT22;3122;48.208;11.174;2023-04-24T23:30:47;7.10;1.00
6178;DHT22;3122;48.208;11.174;2023-04-24T23:35:47;7.20;1.00
6178;DHT22;3122;48.208;11.174;2023-04-24T23:40:49;7.20;1.00
6178;DHT22;3122;48.208;11.174;2023-04-24T23:45:52;7.30;1.00
6178;DHT22;3122;48.208;11.174;2023-04-24T23:50:52;7.20;1.00
6178;DHT22;3122;48.208;11.174;2023-04-24T23:55:53;7.30;1.00
